Time;durP1;ratioP1;P1;durP2;ratioP2;P2;SDS_P1;SDS_P2;PMS_P1;PMS_P2;Temp;Humidity;BMP_temperature;BMP_pressure;BME280_temperature;BME280_humidity;BME280_pressure;Samples;Min_cycle;Max_cycle;Signal;HPM_P1;HPM_P2
2022/04/15 00:01:40;;;;;;;6.20;3.17;;;12.40;99.90;;;;;;5051167;28;20025;-77
2022/04/15 00:04:06;;;;;;;6.20;3.23;;;12.40;99.90;;;;;;5049502;28;20090;-77
2022/04/15 00:06:35;;;;;;;3.20;2.53;;;12.30;99.90;;;;;;5051358;28;20043;-77
2022/04/15 00:09:00;;;;;;;2.95;2.40;;;12.30;99.90;;;;;;5050495;28;20100;-78
2022/04/15 00:11:28;;;;;;;6.18;2.88;;;12.30;99.90;;;;;;5050653;28;20108;-78
2022/04/15 00:13:55;;;;;;;4.72;2.83;;;12.30;99.90;;;;;;5048784;28;20029;-78
2022/04/15 00:16:20;;;;;;;6.97;3.05;;;12.30;99.90;;;;;;5050929;28;20056;-78
2022/04/15 00:18:47;;;;;;;4.80;2.72;;;12.40;99.90;;;;;;5050055;28;20025;-78
2022/04/15 00:21:13;;;;;;;5.75;2.72;;;12.40;99.90;;;;;;5050963;28;20056;-78
2022/04/15 00:23:39;;;;;;;5.45;2.70;;;12.40;99.90;;;;;;5050602;28;20090;-78
2022/04/15 00:26:04;;;;;;;3.20;2.63;;;12.40;99.90;;;;;;5049932;28;20111;-78
2022/04/15 00:28:31;;;;;;;5.28;2.45;;;12.40;99.90;;;;;;5049962;28;20433;-78
2022/04/15 00:30:58;;;;;;;3.90;2.13;;;12.40;99.90;;;;;;5053284;28;20024;-78
2022/04/15 00:33:24;;;;;;;6.15;2.60;;;12.40;99.90;;;;;;5054250;28;20079;-78
2022/04/15 00:35:50;;;;;;;4.72;2.83;;;12.40;99.90;;;;;;5053263;28;20033;-78
2022/04/15 00:38:16;;;;;;;4.70;2.45;;;12.40;99.90;;;;;;5052941;28;20021;-78
2022/04/15 00:40:42;;;;;;;2.45;2.00;;;12.40;99.90;;;;;;5053899;28;20029;-78
2022/04/15 00:43:08;;;;;;;4.95;2.45;;;12.40;99.90;;;;;;5052594;28;20083;-78
2022/04/15 00:45:33;;;;;;;5.13;2.67;;;12.50;99.90;;;;;;5054301;28;20407;-78
2022/04/15 00:48:00;;;;;;;3.05;2.17;;;12.40;99.90;;;;;;5051916;28;20021;-78
2022/04/15 00:50:29;;;;;;;3.45;2.35;;;12.40;99.90;;;;;;5053388;28;20104;-77
2022/04/15 00:52:58;;;;;;;3.75;2.38;;;12.40;99.90;;;;;;5052970;28;20482;-77
2022/04/15 00:55:25;;;;;;;3.05;2.28;;;12.30;99.90;;;;;;5054350;28;20078;-78
2022/04/15 00:57:58;;;;;;;4.78;2.10;;;12.30;99.90;;;;;;5053133;28;20485;-77
2022/04/15 01:00:26;;;;;;;4.32;2.38;;;12.30;99.90;;;;;;5053483;28;20048;-77
2022/04/15 01:02:52;;;;;;;2.67;2.42;;;12.30;99.90;;;;;;5054179;28;20029;-77
2022/04/15 01:05:18;;;;;;;7.78;2.80;;;12.30;99.90;;;;;;5052489;28;20074;-78
2022/04/15 01:07:50;;;;;;;8.55;3.00;;;12.30;99.90;;;;;;5052137;28;20108;-77
2022/04/15 01:10:17;;;;;;;3.72;2.47;;;12.30;99.90;;;;;;5053730;28;20036;-77
2022/04/15 01:12:47;;;;;;;4.90;2.63;;;12.30;99.90;;;;;;5053825;28;20029;-78
2022/04/15 01:15:14;;;;;;;4.65;2.50;;;12.30;99.90;;;;;;5062367;28;20021;-76
2022/04/15 01:17:40;;;;;;;2.58;1.85;;;12.30;99.90;;;;;;5074720;28;20045;-77
2022/04/15 01:20:08;;;;;;;2.75;2.35;;;12.30;99.90;;;;;;5058991;28;20100;-77
2022/04/15 01:22:37;;;;;;;5.20;2.60;;;12.30;99.90;;;;;;5053644;28;20453;-77
2022/04/15 01:25:04;;;;;;;5.47;2.70;;;12.30;99.90;;;;;;5052704;28;20057;-76
2022/04/15 01:27:33;;;;;;;5.65;2.58;;;12.30;99.90;;;;;;5053449;28;20076;-78
2022/04/15 01:29:58;;;;;;;2.60;2.40;;;12.30;99.90;;;;;;5052334;28;20068;-77
2022/04/15 01:32:25;;;;;;;3.42;2.63;;;12.30;99.90;;;;;;5055907;28;20041;-77
2022/04/15 01:34:50;;;;;;;4.38;2.58;;;12.30;99.90;;;;;;5055245;28;20036;-78
2022/04/15 01:37:19;;;;;;;4.95;2.60;;;12.40;99.90;;;;;;5053124;28;20025;-78
2022/04/15 01:39:46;;;;;;;3.17;2.35;;;12.30;99.90;;;;;;5052784;28;20017;-79
2022/04/15 01:42:13;;;;;;;3.13;2.17;;;12.30;99.90;;;;;;5051535;28;20082;-78
2022/04/15 01:44:40;;;;;;;2.30;2.10;;;12.30;99.90;;;;;;5052962;28;20037;-78
2022/04/15 01:47:06;;;;;;;4.25;2.17;;;12.30;99.90;;;;;;5052155;28;20213;-78
2022/04/15 01:49:32;;;;;;;2.78;2.13;;;12.20;99.90;;;;;;5052917;28;20025;-78
2022/04/15 01:51:57;;;;;;;2.95;2.13;;;12.20;99.90;;;;;;5052036;28;20059;-78
2022/04/15 01:54:23;;;;;;;3.35;2.20;;;12.20;99.90;;;;;;5051601;28;20408;-77
2022/04/15 01:56:49;;;;;;;4.05;2.30;;;12.10;99.90;;;;;;5051386;28;20044;-77
2022/04/15 01:59:15;;;;;;;3.78;2.20;;;12.10;99.90;;;;;;5053119;28;20061;-77
2022/04/15 02:01:40;;;;;;;3.58;2.55;;;12.10;99.90;;;;;;5052957;28;20048;-77
2022/04/15 02:04:06;;;;;;;3.17;2.60;;;12.10;99.90;;;;;;5051678;28;20815;-77
2022/04/15 02:06:32;;;;;;;5.13;2.95;;;12.00;99.90;;;;;;5052605;28;20025;-77
2022/04/15 02:08:57;;;;;;;6.03;2.92;;;12.00;99.90;;;;;;5051703;28;20128;-77
2022/04/15 02:11:23;;;;;;;6.65;3.15;;;12.00;99.90;;;;;;5051404;28;20536;-77
2022/04/15 02:13:49;;;;;;;4.60;2.78;;;12.00;99.90;;;;;;5051808;28;20033;-77
2022/04/15 02:16:14;;;;;;;6.85;3.00;;;12.00;99.90;;;;;;5050683;28;20381;-77
2022/04/15 02:18:40;;;;;;;4.00;3.15;;;12.00;99.90;;;;;;5052117;28;20395;-77
2022/04/15 02:21:05;;;;;;;5.32;2.78;;;12.00;99.90;;;;;;5051646;28;20033;-77
2022/04/15 02:23:31;;;;;;;5.25;2.80;;;11.90;99.90;;;;;;5052269;28;20036;-77
2022/04/15 02:25:57;;;;;;;6.05;3.33;;;11.90;99.90;;;;;;5051556;28;20061;-77
2022/04/15 02:28:22;;;;;;;4.70;3.00;;;11.90;99.90;;;;;;5051002;28;20075;-77
2022/04/15 02:30:48;;;;;;;5.00;2.88;;;11.80;99.90;;;;;;5051607;28;20535;-77
2022/04/15 02:33:15;;;;;;;5.50;2.58;;;11.80;99.90;;;;;;5051686;28;20064;-78
2022/04/15 02:35:40;;;;;;;4.47;3.15;;;11.80;99.90;;;;;;5050793;28;20047;-78
2022/04/15 02:38:06;;;;;;;6.72;3.95;;;11.80;99.90;;;;;;5049955;28;20033;-78
2022/04/15 02:40:32;;;;;;;8.88;3.28;;;11.70;99.90;;;;;;5051790;28;20082;-78
2022/04/15 02:42:57;;;;;;;5.80;3.60;;;11.80;99.90;;;;;;5051055;28;20105;-78
2022/04/15 02:45:23;;;;;;;4.97;3.40;;;11.80;99.90;;;;;;5050611;28;20048;-78
2022/04/15 02:47:49;;;;;;;5.30;3.78;;;11.80;99.90;;;;;;5051652;28;20028;-78
2022/04/15 02:50:15;;;;;;;9.20;3.40;;;11.80;99.90;;;;;;5051006;28;20025;-78
2022/04/15 02:52:41;;;;;;;5.00;3.10;;;11.80;99.90;;;;;;5051301;28;20045;-78
2022/04/15 02:55:07;;;;;;;4.60;3.08;;;11.80;99.90;;;;;;5049454;28;20037;-78
2022/04/15 02:57:33;;;;;;;5.50;3.65;;;11.80;99.90;;;;;;5050549;28;20119;-78
2022/04/15 02:59:58;;;;;;;6.25;3.30;;;11.70;99.90;;;;;;5051060;28;20025;-78
2022/04/15 03:02:25;;;;;;;3.70;3.25;;;11.70;99.90;;;;;;5051715;28;20095;-78
2022/04/15 03:04:51;;;;;;;3.95;3.28;;;11.70;99.90;;;;;;5049985;28;20111;-77
2022/04/15 03:07:17;;;;;;;6.95;3.50;;;11.60;99.90;;;;;;5051174;28;20028;-77
2022/04/15 03:09:42;;;;;;;8.20;3.45;;;11.60;99.90;;;;;;5050156;28;20091;-77
2022/04/15 03:12:09;;;;;;;7.43;3.58;;;11.60;99.90;;;;;;5050776;28;20108;-77
2022/04/15 03:14:35;;;;;;;6.43;3.70;;;11.50;99.90;;;;;;5050003;28;20029;-77
2022/04/15 03:17:01;;;;;;;3.97;3.58;;;11.50;99.90;;;;;;5050528;28;20036;-78
2022/04/15 03:19:26;;;;;;;6.65;3.28;;;11.50;99.90;;;;;;5050700;28;20363;-77
2022/04/15 03:21:52;;;;;;;6.07;3.58;;;11.60;99.90;;;;;;5051882;28;20485;-78
2022/04/15 03:24:18;;;;;;;4.82;3.53;;;11.60;99.90;;;;;;5051515;28;20029;-78
2022/04/15 03:26:43;;;;;;;5.68;4.07;;;11.60;99.90;;;;;;5051750;28;20462;-78
2022/04/15 03:29:09;;;;;;;3.88;3.45;;;11.60;99.90;;;;;;5050911;28;20474;-78
2022/04/15 03:31:35;;;;;;;5.00;3.13;;;11.60;99.90;;;;;;5052214;28;20021;-78
2022/04/15 03:34:00;;;;;;;5.15;3.45;;;11.60;99.90;;;;;;5050132;28;20025;-77
2022/04/15 03:36:26;;;;;;;3.30;2.97;;;11.50;99.90;;;;;;5051786;28;20079;-78
2022/04/15 03:38:52;;;;;;;3.03;2.72;;;11.50;99.90;;;;;;5051734;28;20029;-77
2022/04/15 03:41:18;;;;;;;4.80;3.10;;;11.40;99.90;;;;;;5051445;28;20033;-77
2022/04/15 03:43:43;;;;;;;3.88;3.03;;;11.30;99.90;;;;;;5051704;28;20405;-77
2022/04/15 03:46:09;;;;;;;4.95;3.03;;;11.30;99.90;;;;;;5051075;28;20029;-77
2022/04/15 03:48:35;;;;;;;4.68;3.40;;;11.20;99.90;;;;;;5051861;28;20087;-77
2022/04/15 03:51:00;;;;;;;4.82;3.40;;;11.10;99.90;;;;;;5050733;28;20057;-77
2022/04/15 03:53:26;;;;;;;5.93;3.10;;;11.10;99.90;;;;;;5051857;28;20029;-79
2022/04/15 03:55:52;;;;;;;6.40;3.58;;;11.00;99.90;;;;;;5051831;28;20135;-79
2022/04/15 03:58:18;;;;;;;4.13;3.55;;;11.00;99.90;;;;;;5051208;28;20108;-79
2022/04/15 04:00:44;;;;;;;5.90;3.40;;;11.00;99.90;;;;;;5051712;28;20056;-78
2022/04/15 04:03:10;;;;;;;3.40;3.00;;;10.90;99.90;;;;;;5052337;28;20497;-78
2022/04/15 04:05:36;;;;;;;6.25;3.72;;;10.80;99.90;;;;;;5055786;28;20025;-79
2022/04/15 04:08:01;;;;;;;4.57;3.50;;;10.70;99.90;;;;;;5054872;28;20450;-79
2022/04/15 04:10:27;;;;;;;6.25;3.60;;;10.60;99.90;;;;;;5055572;28;20104;-79
2022/04/15 04:12:53;;;;;;;4.78;3.90;;;10.50;99.90;;;;;;5055511;28;20025;-79
2022/04/15 04:15:19;;;;;;;4.50;3.80;;;10.50;99.90;;;;;;5054778;28;20033;-79
2022/04/15 04:17:44;;;;;;;5.75;3.97;;;10.50;99.90;;;;;;5054248;28;20033;-77
2022/04/15 04:20:12;;;;;;;4.95;4.05;;;10.40;99.90;;;;;;5053327;28;20057;-77
2022/04/15 04:22:38;;;;;;;6.57;4.13;;;10.40;99.90;;;;;;5055443;28;20059;-77
2022/04/15 04:25:09;;;;;;;5.60;3.90;;;10.30;99.90;;;;;;5054603;28;20107;-77
2022/04/15 04:27:39;;;;;;;5.55;4.20;;;10.30;99.90;;;;;;5055436;28;20025;-77
2022/04/15 04:30:06;;;;;;;6.38;3.80;;;10.30;99.90;;;;;;5054208;28;20029;-77
2022/04/15 04:32:32;;;;;;;6.07;4.65;;;10.30;99.90;;;;;;5053787;28;20029;-77
2022/04/15 04:34:58;;;;;;;7.07;4.25;;;10.20;99.90;;;;;;5054478;28;20183;-78
2022/04/15 04:37:23;;;;;;;6.90;4.50;;;10.30;99.90;;;;;;5054844;28;20108;-78
2022/04/15 04:39:49;;;;;;;5.03;4.00;;;10.20;99.90;;;;;;5054908;28;20028;-78
2022/04/15 04:42:15;;;;;;;6.07;4.32;;;10.20;99.90;;;;;;5054191;28;20024;-78
2022/04/15 04:44:42;;;;;;;7.43;4.47;;;10.10;99.90;;;;;;5055185;28;20029;-76
2022/04/15 04:47:09;;;;;;;6.43;5.00;;;10.20;99.90;;;;;;5055858;28;20029;-78
2022/04/15 04:49:36;;;;;;;9.18;4.93;;;10.20;99.90;;;;;;5057973;28;20067;-78
2022/04/15 04:52:03;;;;;;;7.43;4.70;;;10.20;99.90;;;;;;5053820;28;20068;-79
2022/04/15 04:54:29;;;;;;;7.28;4.90;;;10.20;99.90;;;;;;5054626;28;20090;-78
2022/04/15 04:56:55;;;;;;;8.52;4.60;;;10.30;99.90;;;;;;5053476;28;20549;-78
2022/04/15 04:59:22;;;;;;;6.10;4.60;;;10.30;99.90;;;;;;5053714;28;20104;-77
2022/04/15 05:01:48;;;;;;;10.13;4.68;;;10.30;99.90;;;;;;5054490;28;20043;-78
2022/04/15 05:04:13;;;;;;;7.03;4.28;;;10.40;99.90;;;;;;5053545;28;20021;-78
2022/04/15 05:06:39;;;;;;;5.95;4.07;;;10.40;99.90;;;;;;5053318;28;20025;-78
2022/04/15 05:09:05;;;;;;;6.63;4.18;;;10.50;99.90;;;;;;5053381;28;20053;-78
2022/04/15 05:11:30;;;;;;;5.97;4.45;;;10.50;99.90;;;;;;5054377;28;20462;-79
2022/04/15 05:13:56;;;;;;;6.95;4.38;;;10.50;99.90;;;;;;5053393;28;20474;-78
2022/04/15 05:16:22;;;;;;;6.10;4.10;;;10.60;99.90;;;;;;5053534;28;20063;-79
2022/04/15 05:18:47;;;;;;;6.78;4.53;;;10.60;99.90;;;;;;5052915;28;20029;-78
2022/04/15 05:21:13;;;;;;;6.20;4.47;;;10.70;99.90;;;;;;5053556;28;20098;-78
2022/04/15 05:23:39;;;;;;;6.32;4.68;;;10.70;99.90;;;;;;5053912;28;20040;-80
2022/04/15 05:26:04;;;;;;;4.93;4.15;;;10.70;99.90;;;;;;5053363;28;20021;-79
2022/04/15 05:28:35;;;;;;;5.78;4.25;;;10.70;99.90;;;;;;5054105;28;20029;-79
2022/04/15 05:31:02;;;;;;;5.05;3.90;;;10.80;99.90;;;;;;5053585;28;20025;-78
2022/04/15 05:33:28;;;;;;;6.95;4.32;;;10.90;99.90;;;;;;5053852;28;20039;-78
2022/04/15 05:35:54;;;;;;;5.72;4.40;;;10.90;99.90;;;;;;5053811;28;20104;-78
2022/04/15 05:38:19;;;;;;;7.32;5.00;;;11.00;99.90;;;;;;5053040;28;20595;-78
2022/04/15 05:40:45;;;;;;;5.80;3.90;;;11.20;99.90;;;;;;5053506;28;20064;-79
2022/04/15 05:43:11;;;;;;;5.65;4.45;;;11.20;99.90;;;;;;5052757;28;20025;-78
2022/04/15 05:45:36;;;;;;;6.90;5.28;;;11.40;99.90;;;;;;5053541;28;20052;-78
2022/04/15 05:48:02;;;;;;;6.50;4.75;;;11.50;99.90;;;;;;5052875;28;20036;-79
2022/04/15 05:50:27;;;;;;;7.57;5.03;;;11.60;99.90;;;;;;5052861;28;20047;-78
2022/04/15 05:52:53;;;;;;;7.75;5.00;;;11.80;99.90;;;;;;5053409;28;20467;-79
2022/04/15 05:55:19;;;;;;;7.72;5.03;;;11.90;99.90;;;;;;5052374;28;20066;-79
2022/04/15 05:57:44;;;;;;;7.15;5.13;;;12.00;99.90;;;;;;5053540;28;20028;-79
2022/04/15 06:00:10;;;;;;;5.47;4.95;;;12.10;99.90;;;;;;5052303;28;20098;-79
2022/04/15 06:02:36;;;;;;;6.82;5.40;;;12.20;99.90;;;;;;5052220;28;20496;-78
2022/04/15 06:05:02;;;;;;;6.93;5.78;;;12.30;99.90;;;;;;5052959;28;20025;-79
2022/04/15 06:07:28;;;;;;;7.20;5.35;;;12.40;99.90;;;;;;5053041;28;20029;-78
2022/04/15 06:09:55;;;;;;;8.00;5.70;;;12.40;99.90;;;;;;5052072;28;20111;-78
2022/04/15 06:12:21;;;;;;;7.03;5.30;;;12.60;99.90;;;;;;5051108;28;20043;-79
2022/04/15 06:14:51;;;;;;;8.20;5.40;;;12.70;99.90;;;;;;5052991;28;20083;-78
2022/04/15 06:17:22;;;;;;;8.40;5.47;;;12.80;99.90;;;;;;5052308;28;20036;-78
2022/04/15 06:19:48;;;;;;;12.75;5.95;;;12.90;99.90;;;;;;5052985;28;20029;-79
2022/04/15 06:22:14;;;;;;;9.27;6.35;;;13.00;99.90;;;;;;5050605;28;20063;-79
2022/04/15 06:24:40;;;;;;;10.02;6.38;;;13.10;99.90;;;;;;5052922;28;20068;-79
2022/04/15 06:27:05;;;;;;;8.52;5.38;;;13.20;99.90;;;;;;5051855;28;20074;-79
2022/04/15 06:29:31;;;;;;;7.72;5.78;;;13.20;99.90;;;;;;5052793;28;20029;-79
2022/04/15 06:31:56;;;;;;;12.15;6.38;;;13.30;99.90;;;;;;5052614;28;20359;-78
2022/04/15 06:34:22;;;;;;;9.48;6.68;;;13.30;99.90;;;;;;5051919;28;20041;-79
2022/04/15 06:36:48;;;;;;;8.00;5.55;;;13.30;99.90;;;;;;5052772;28;20064;-79
2022/04/15 06:39:13;;;;;;;7.45;5.93;;;13.40;99.90;;;;;;5051922;28;20025;-78
2022/04/15 06:41:40;;;;;;;8.95;5.80;;;13.60;99.90;;;;;;5052686;28;20472;-79
2022/04/15 06:44:06;;;;;;;9.35;5.95;;;13.70;99.90;;;;;;5051868;28;20041;-78
2022/04/15 06:46:32;;;;;;;9.73;6.15;;;13.80;99.90;;;;;;5052642;28;20100;-78
2022/04/15 06:48:57;;;;;;;12.57;6.80;;;13.80;99.90;;;;;;5052905;28;20060;-78
2022/04/15 06:51:25;;;;;;;9.43;6.55;;;13.90;99.90;;;;;;5051995;28;20053;-78
2022/04/15 06:53:51;;;;;;;9.32;6.85;;;14.00;99.90;;;;;;5052749;28;20085;-79
2022/04/15 06:56:17;;;;;;;10.35;7.03;;;14.20;99.90;;;;;;5050675;28;20076;-78
2022/04/15 06:58:44;;;;;;;9.13;6.28;;;14.30;99.90;;;;;;5052618;28;20402;-79
2022/04/15 07:01:10;;;;;;;11.05;7.38;;;14.30;99.90;;;;;;5051961;28;20450;-78
2022/04/15 07:03:35;;;;;;;9.90;7.70;;;14.40;99.90;;;;;;5052511;28;20032;-79
2022/04/15 07:06:02;;;;;;;13.68;7.95;;;14.50;99.90;;;;;;5052295;28;20025;-79
2022/04/15 07:08:28;;;;;;;9.45;7.38;;;14.60;99.90;;;;;;5050472;28;20404;-79
2022/04/15 07:10:54;;;;;;;12.48;7.65;;;14.70;99.90;;;;;;5051154;28;20021;-79
2022/04/15 07:13:19;;;;;;;11.25;8.15;;;14.70;99.90;;;;;;5051149;28;20017;-79
2022/04/15 07:15:45;;;;;;;11.20;8.32;;;14.90;99.90;;;;;;5052019;28;20032;-79
2022/04/15 07:18:12;;;;;;;12.27;8.77;;;15.00;99.90;;;;;;5051676;28;20116;-79
2022/04/15 07:20:38;;;;;;;13.43;8.88;;;15.20;99.90;;;;;;5051977;28;20033;-79
2022/04/15 07:23:04;;;;;;;14.57;9.05;;;15.20;99.90;;;;;;5052409;28;20029;-79
2022/04/15 07:25:30;;;;;;;12.38;8.25;;;15.30;99.90;;;;;;5051484;28;20074;-78
2022/04/15 07:27:56;;;;;;;13.27;10.30;;;15.40;99.90;;;;;;5051916;28;20386;-79
2022/04/15 07:30:23;;;;;;;14.70;10.15;;;15.50;99.90;;;;;;5051014;28;20036;-79
2022/04/15 07:32:48;;;;;;;11.70;9.13;;;15.60;99.90;;;;;;5052134;28;20017;-79
2022/04/15 07:35:14;;;;;;;18.02;10.65;;;15.70;99.90;;;;;;5051182;28;20493;-79
2022/04/15 07:37:40;;;;;;;14.32;10.55;;;15.80;99.90;;;;;;5052551;28;20025;-79
2022/04/15 07:40:06;;;;;;;15.27;10.35;;;15.90;99.90;;;;;;5056227;28;20028;-78
2022/04/15 07:42:32;;;;;;;14.43;11.07;;;16.00;99.90;;;;;;5055486;28;20033;-79
2022/04/15 07:44:57;;;;;;;16.08;12.10;;;16.20;99.90;;;;;;5055881;28;20481;-78
2022/04/15 07:47:23;;;;;;;17.27;12.10;;;16.30;99.90;;;;;;5055398;28;20467;-77
2022/04/15 07:49:50;;;;;;;17.75;12.77;;;16.40;99.90;;;;;;5054589;28;20029;-78
2022/04/15 07:52:16;;;;;;;15.63;12.15;;;16.40;99.90;;;;;;5055238;28;20076;-80
2022/04/15 07:54:42;;;;;;;16.95;13.88;;;16.30;99.90;;;;;;5055756;28;20524;-76
2022/04/15 07:57:08;;;;;;;15.48;13.00;;;16.40;99.90;;;;;;5055554;28;20025;-75
2022/04/15 07:59:34;;;;;;;15.02;11.27;;;16.50;99.90;;;;;;5055510;28;20378;-79
2022/04/15 08:02:00;;;;;;;16.10;12.10;;;16.50;99.90;;;;;;5062596;28;20029;-78
2022/04/15 08:04:26;;;;;;;17.70;12.20;;;16.60;99.90;;;;;;5057303;28;20021;-79
2022/04/15 08:06:52;;;;;;;14.80;12.40;;;16.80;99.90;;;;;;5055625;28;20036;-79
2022/04/15 08:09:18;;;;;;;16.85;12.80;;;16.90;99.90;;;;;;5054939;28;20061;-78
2022/04/15 08:11:44;;;;;;;16.52;12.60;;;17.10;99.90;;;;;;5054254;28;20474;-79
2022/04/15 08:14:09;;;;;;;16.38;12.50;;;17.10;99.90;;;;;;5055026;28;20156;-79
2022/04/15 08:16:35;;;;;;;16.95;12.75;;;17.30;99.90;;;;;;5053819;28;20352;-78
2022/04/15 08:19:01;;;;;;;19.35;13.63;;;17.40;99.90;;;;;;5055157;28;20025;-79
2022/04/15 08:21:26;;;;;;;14.13;12.23;;;17.40;99.30;;;;;;5053171;28;20036;-79
2022/04/15 08:23:52;;;;;;;15.93;12.93;;;17.40;99.40;;;;;;5055069;28;20040;-79
2022/04/15 08:26:18;;;;;;;16.40;13.38;;;17.40;99.60;;;;;;5054400;28;20100;-79
2022/04/15 08:28:43;;;;;;;14.88;12.52;;;17.50;99.50;;;;;;5054919;28;20466;-79
2022/04/15 08:31:09;;;;;;;20.17;13.68;;;17.50;98.90;;;;;;5055039;28;20075;-78
2022/04/15 08:33:35;;;;;;;15.38;13.43;;;17.60;98.40;;;;;;5054612;28;20032;-79
2022/04/15 08:36:01;;;;;;;16.02;13.00;;;17.70;98.70;;;;;;5055035;28;20047;-79
2022/04/15 08:38:27;;;;;;;18.25;14.57;;;17.80;97.90;;;;;;5053100;28;20408;-79
2022/04/15 08:40:56;;;;;;;17.15;14.32;;;17.80;96.40;;;;;;5053665;28;20029;-78
2022/04/15 08:43:24;;;;;;;18.77;15.47;;;18.00;96.50;;;;;;5052843;28;20025;-79
2022/04/15 08:45:49;;;;;;;16.33;13.60;;;18.00;96.50;;;;;;5053597;28;20313;-79
2022/04/15 08:48:15;;;;;;;20.02;16.40;;;18.00;96.50;;;;;;5053760;28;20025;-78
2022/04/15 08:50:41;;;;;;;18.25;14.82;;;18.00;95.10;;;;;;5053160;28;20092;-78
2022/04/15 08:53:08;;;;;;;17.85;15.25;;;18.00;95.10;;;;;;5053702;28;20037;-79
2022/04/15 08:55:34;;;;;;;15.65;13.77;;;18.00;95.50;;;;;;5053912;28;20509;-79
2022/04/15 08:58:00;;;;;;;18.52;13.90;;;18.10;95.60;;;;;;5054738;28;20025;-79
2022/04/15 09:00:26;;;;;;;20.13;15.02;;;18.20;95.20;;;;;;5053645;28;20076;-79
2022/04/15 09:02:54;;;;;;;19.08;14.43;;;18.30;94.70;;;;;;5053601;28;20118;-79
2022/04/15 09:05:28;;;;;;;21.83;17.08;;;18.30;94.50;;;;;;5053792;28;20057;-78
2022/04/15 09:08:08;;;;;;;20.20;16.65;;;18.30;93.40;;;;;;5054570;28;20021;-79
2022/04/15 09:10:35;;;;;;;19.65;17.48;;;18.20;92.60;;;;;;5053682;28;20021;-78
2022/04/15 09:13:01;;;;;;;21.65;17.40;;;18.20;92.70;;;;;;5054180;28;20500;-79
2022/04/15 09:15:28;;;;;;;22.67;18.00;;;18.20;92.10;;;;;;5052977;28;20471;-78
2022/04/15 09:17:54;;;;;;;19.02;14.50;;;18.30;92.10;;;;;;5054199;28;20032;-79
2022/04/15 09:20:21;;;;;;;20.20;16.17;;;18.30;91.30;;;;;;5053282;28;20025;-79
2022/04/15 09:22:52;;;;;;;21.30;17.30;;;18.50;91.20;;;;;;5054197;28;20079;-79
2022/04/15 09:25:26;;;;;;;18.85;16.83;;;18.70;91.50;;;;;;5053204;28;20036;-79
2022/04/15 09:27:56;;;;;;;22.48;18.42;;;18.90;87.70;;;;;;5052795;28;20060;-78
2022/04/15 09:30:35;;;;;;;17.77;15.65;;;19.00;88.80;;;;;;5053421;28;20033;-79
2022/04/15 09:33:02;;;;;;;17.88;15.63;;;18.90;90.00;;;;;;5054175;28;20055;-78
2022/04/15 09:35:29;;;;;;;18.88;15.98;;;19.10;89.20;;;;;;5053089;28;20033;-78
2022/04/15 09:37:59;;;;;;;18.17;15.88;;;19.20;88.30;;;;;;5054122;28;20381;-78
2022/04/15 09:40:27;;;;;;;18.85;15.18;;;19.30;86.70;;;;;;5052808;28;20093;-78
2022/04/15 09:42:57;;;;;;;17.35;15.30;;;19.40;86.20;;;;;;5053634;28;20029;-78
2022/04/15 09:45:25;;;;;;;16.55;14.15;;;19.20;84.90;;;;;;5052909;28;20123;-78
2022/04/15 09:48:17;;;;;;;16.95;13.90;;;19.20;86.00;;;;;;5053812;28;20479;-78
2022/04/15 09:50:43;;;;;;;15.73;14.02;;;19.30;83.80;;;;;;5051442;28;20048;-78
2022/04/15 09:53:10;;;;;;;17.13;15.18;;;19.30;85.00;;;;;;5053418;28;20108;-79
2022/04/15 09:55:39;;;;;;;16.15;14.25;;;19.40;85.50;;;;;;5052205;28;20596;-78
2022/04/15 09:58:10;;;;;;;16.17;14.53;;;19.60;85.00;;;;;;5053394;28;20032;-77
2022/04/15 10:00:38;;;;;;;16.15;13.88;;;19.50;83.40;;;;;;5051211;28;20029;-78
2022/04/15 10:03:11;;;;;;;18.02;15.27;;;19.40;83.50;;;;;;5053452;28;20108;-77
2022/04/15 10:05:38;;;;;;;15.82;13.73;;;19.50;80.60;;;;;;5051302;28;20024;-78
2022/04/15 10:08:05;;;;;;;15.95;13.80;;;19.60;80.00;;;;;;5052097;28;20449;-78
2022/04/15 10:10:32;;;;;;;13.63;12.32;;;19.70;79.60;;;;;;5052153;28;20105;-78
2022/04/15 10:13:03;;;;;;;15.95;13.25;;;19.90;77.80;;;;;;5051871;28;20032;-78
2022/04/15 10:15:30;;;;;;;18.10;12.77;;;19.90;76.90;;;;;;5050843;28;20486;-78
2022/04/15 10:18:00;;;;;;;17.05;13.55;;;19.90;78.00;;;;;;5053038;28;20029;-78
2022/04/15 10:20:30;;;;;;;14.52;12.98;;;20.00;77.50;;;;;;5050739;28;20072;-78
2022/04/15 10:23:00;;;;;;;15.40;12.55;;;20.10;77.10;;;;;;5052925;28;20048;-78
2022/04/15 10:25:28;;;;;;;14.15;12.65;;;20.20;77.50;;;;;;5050911;28;20044;-78
2022/04/15 10:28:03;;;;;;;15.05;12.90;;;20.40;76.70;;;;;;5052815;28;20033;-78
2022/04/15 10:30:28;;;;;;;11.93;10.60;;;20.30;76.30;;;;;;5051762;28;20334;-78
2022/04/15 10:32:57;;;;;;;12.85;10.68;;;20.40;76.70;;;;;;5052511;28;20025;-79
2022/04/15 10:35:31;;;;;;;15.00;12.40;;;20.60;76.50;;;;;;5051848;28;20028;-76
2022/04/15 10:38:11;;;;;;;12.55;10.65;;;20.90;75.70;;;;;;5052928;28;20036;-77
2022/04/15 10:40:41;;;;;;;18.98;13.88;;;20.90;73.90;;;;;;5051884;28;20873;-76
2022/04/15 10:43:22;;;;;;;17.05;11.98;;;20.50;73.40;;;;;;5052233;28;20537;-78
2022/04/15 10:45:48;;;;;;;14.85;13.18;;;20.20;75.70;;;;;;5052438;28;20450;-77
2022/04/15 10:48:29;;;;;;;15.48;11.70;;;20.30;73.70;;;;;;5052494;28;20017;-77
2022/04/15 10:50:54;;;;;;;10.88;9.60;;;20.50;73.40;;;;;;5052462;28;20371;-78
2022/04/15 10:53:26;;;;;;;14.27;10.85;;;20.60;72.70;;;;;;5051617;28;20091;-78
2022/04/15 10:55:52;;;;;;;18.23;12.23;;;21.00;72.60;;;;;;5051184;28;20053;-77
2022/04/15 10:58:20;;;;;;;13.98;12.15;;;20.80;71.40;;;;;;5052375;28;20025;-76
2022/04/15 11:01:19;;;;;;;15.52;11.73;;;20.50;72.00;;;;;;5052520;28;20032;-75
2022/04/15 11:03:53;;;;;;;18.65;11.23;;;20.20;70.80;;;;;;5051504;28;20459;-76
2022/04/15 11:06:26;;;;;;;14.75;12.75;;;20.00;74.60;;;;;;5051922;28;20143;-77
2022/04/15 11:08:52;;;;;;;15.55;12.50;;;19.90;73.50;;;;;;5052169;28;20029;-77
2022/04/15 11:11:32;;;;;;;15.77;11.93;;;19.90;74.00;;;;;;5051886;28;20036;-78
2022/04/15 11:13:59;;;;;;;12.13;10.68;;;20.10;74.20;;;;;;5054516;28;20069;-78
2022/04/15 11:16:39;;;;;;;11.63;9.90;;;20.30;72.30;;;;;;5051318;28;20029;-78
2022/04/15 11:19:07;;;;;;;14.90;10.93;;;20.50;71.50;;;;;;5052674;28;20029;-77
2022/04/15 11:21:37;;;;;;;10.15;8.00;;;20.80;70.40;;;;;;5051090;28;20125;-78
2022/04/15 11:24:10;;;;;;;10.77;9.68;;;21.10;69.70;;;;;;5052290;28;20040;-76
2022/04/15 11:26:37;;;;;;;14.85;9.82;;;21.40;67.60;;;;;;5050933;28;20421;-77
2022/04/15 11:29:05;;;;;;;10.93;8.50;;;21.20;66.60;;;;;;5052025;28;20025;-77
2022/04/15 11:31:32;;;;;;;10.18;7.32;;;21.10;66.60;;;;;;5051556;28;20087;-77
2022/04/15 11:34:13;;;;;;;14.45;9.40;;;21.10;67.40;;;;;;5052025;28;20083;-77
2022/04/15 11:36:41;;;;;;;7.53;6.70;;;21.20;65.70;;;;;;5051166;28;20053;-78
2022/04/15 11:39:08;;;;;;;12.25;7.97;;;21.60;65.80;;;;;;5050668;28;20026;-79
2022/04/15 11:41:34;;;;;;;10.50;9.10;;;22.00;65.70;;;;;;5051251;28;20451;-78
2022/04/15 11:44:04;;;;;;;15.82;10.38;;;22.30;64.70;;;;;;5051645;28;20048;-78
2022/04/15 11:46:36;;;;;;;13.32;10.60;;;22.30;64.90;;;;;;5050894;28;20025;-78
2022/04/15 11:49:12;;;;;;;11.65;9.27;;;22.10;64.30;;;;;;5050160;28;20061;-78
2022/04/15 11:51:37;;;;;;;11.38;9.43;;;22.00;65.20;;;;;;5050349;28;20567;-78
2022/04/15 11:54:03;;;;;;;10.65;8.32;;;22.00;64.90;;;;;;5051667;28;20041;-78
2022/04/15 11:56:29;;;;;;;9.68;8.15;;;22.10;65.00;;;;;;5049569;28;20143;-77
2022/04/15 11:58:57;;;;;;;11.70;8.52;;;22.20;63.90;;;;;;5051713;28;20402;-76
2022/04/15 12:01:27;;;;;;;11.93;8.43;;;22.30;64.40;;;;;;5051035;28;20374;-76
2022/04/15 12:03:53;;;;;;;8.88;7.63;;;22.30;63.80;;;;;;5051316;28;20111;-77
2022/04/15 12:06:19;;;;;;;11.48;8.90;;;22.30;63.30;;;;;;5050185;28;20094;-80
2022/04/15 12:08:44;;;;;;;9.60;8.55;;;22.60;63.20;;;;;;5050360;28;20024;-78
2022/04/15 12:11:11;;;;;;;9.70;8.15;;;22.80;62.20;;;;;;5051145;28;20040;-77
2022/04/15 12:13:36;;;;;;;10.65;8.75;;;23.10;60.60;;;;;;5050592;28;20029;-77
2022/04/15 12:16:04;;;;;;;12.18;9.88;;;23.10;60.20;;;;;;5051489;28;20356;-76
2022/04/15 12:18:30;;;;;;;11.70;9.15;;;23.00;59.60;;;;;;5050412;28;20029;-76
2022/04/15 12:20:56;;;;;;;10.75;9.02;;;23.20;59.90;;;;;;5050981;28;20125;-77
2022/04/15 12:23:25;;;;;;;9.30;6.63;;;22.90;59.50;;;;;;5051341;28;20029;-78
2022/04/15 12:26:12;;;;;;;13.63;9.68;;;22.70;60.60;;;;;;5053401;28;20079;-78
2022/04/15 12:31:32;;;;;;;10.50;7.80;;;22.10;60.50;;;;;;5054109;28;20247;-78
2022/04/15 12:33:59;;;;;;;11.77;8.60;;;21.90;61.30;;;;;;5054752;28;20029;-78
2022/04/15 12:36:25;;;;;;;12.00;9.55;;;22.10;61.50;;;;;;5053377;28;20025;-79
2022/04/15 12:39:02;;;;;;;15.07;10.30;;;22.50;59.90;;;;;;5054067;28;20025;-77
2022/04/15 12:41:57;;;;;;;11.85;8.50;;;22.70;60.00;;;;;;5053785;28;20478;-79
2022/04/15 12:44:29;;;;;;;12.55;8.27;;;22.80;58.80;;;;;;5049859;28;20044;-77